createdAt,value
2019-06-07T00:02:22.213Z,13.47
2019-06-07T00:04:52.156Z,13.47
2019-06-07T00:07:22.145Z,13.21
2019-06-07T00:09:52.096Z,13.18
2019-06-07T00:15:01.369Z,12.95
2019-06-07T00:17:31.315Z,12.90
2019-06-07T00:20:01.278Z,12.71
2019-06-07T00:22:33.296Z,12.80
2019-06-07T00:25:01.451Z,12.74
2019-06-07T00:27:31.674Z,12.70
2019-06-07T00:30:29.502Z,12.81
2019-06-07T00:32:31.915Z,12.84
2019-06-07T00:35:01.863Z,12.98
2019-06-07T00:37:32.053Z,12.91
2019-06-07T00:40:13.995Z,12.79
2019-06-07T00:42:31.934Z,12.70
2019-06-07T00:45:02.172Z,12.81
2019-06-07T00:47:32.396Z,13.04
2019-06-07T00:50:02.337Z,12.81
2019-06-07T00:55:02.572Z,12.78
2019-06-07T00:57:32.877Z,12.66
2019-06-07T01:00:02.794Z,12.75
2019-06-07T01:02:32.728Z,12.61
2019-06-07T01:05:02.979Z,12.73
2019-06-07T01:07:32.851Z,12.61
2019-06-07T01:10:02.787Z,12.56
2019-06-07T01:12:33.062Z,12.67
2019-06-07T01:15:03.311Z,12.77
2019-06-07T01:20:13.896Z,12.77
2019-06-07T01:22:42.547Z,12.75
2019-06-07T01:25:12.471Z,12.75
2019-06-07T01:27:42.423Z,12.71
2019-06-07T01:30:12.696Z,12.67
2019-06-07T01:32:42.640Z,12.60
2019-06-07T01:35:12.583Z,12.56
2019-06-07T01:37:42.542Z,12.53
2019-06-07T01:40:12.458Z,12.53
2019-06-07T01:42:42.478Z,12.54
2019-06-07T01:45:12.439Z,12.57
2019-06-07T01:47:42.393Z,12.56
2019-06-07T01:50:12.329Z,12.34
2019-06-07T01:52:42.316Z,12.31
2019-06-07T01:55:12.208Z,12.33
2019-06-07T01:57:48.158Z,12.11
2019-06-07T02:00:12.087Z,12.05
2019-06-07T02:02:42.059Z,12.16
2019-06-07T02:05:11.993Z,12.25
2019-06-07T02:07:41.922Z,12.27
2019-06-07T02:10:11.851Z,12.16
2019-06-07T02:12:43.515Z,12.17
2019-06-07T02:15:11.743Z,11.91
2019-06-07T02:17:41.680Z,11.75
2019-06-07T02:20:11.643Z,11.90
2019-06-07T02:22:41.573Z,12.06
2019-06-07T02:27:41.448Z,11.99
2019-06-07T02:30:44.817Z,11.93
2019-06-07T02:32:41.324Z,11.93
2019-06-07T02:35:11.599Z,11.88
2019-06-07T02:37:41.537Z,11.89
2019-06-07T02:40:11.469Z,11.82
2019-06-07T02:42:42.717Z,11.75
2019-06-07T02:45:11.357Z,11.77
2019-06-07T02:50:20.655Z,11.54
2019-06-07T02:52:50.599Z,11.69
2019-06-07T02:55:20.551Z,11.63
2019-06-07T02:57:50.832Z,11.68
2019-06-07T03:01:00.061Z,11.74
2019-06-07T03:05:51.160Z,11.61
2019-06-07T03:08:21.400Z,11.52
2019-06-07T03:10:51.352Z,11.66
2019-06-07T03:16:00.623Z,11.66
2019-06-07T03:18:32.209Z,11.69
2019-06-07T03:21:05.370Z,11.71
2019-06-07T03:23:32.399Z,11.68
2019-06-07T03:26:01.068Z,11.57
2019-06-07T03:31:10.414Z,11.51
2019-06-07T03:33:42.757Z,11.55
2019-06-07T03:36:23.228Z,11.59
2019-06-07T03:38:40.540Z,11.52
2019-06-07T03:41:10.771Z,11.54
2019-06-07T03:43:40.982Z,11.63
2019-06-07T03:46:10.901Z,11.62
2019-06-07T03:48:41.533Z,11.65
2019-06-07T03:51:24.083Z,11.70
2019-06-07T03:53:41.029Z,11.72
2019-06-07T03:56:11.137Z,11.75
2019-06-07T03:58:49.208Z,11.75
2019-06-07T04:01:10.607Z,11.70
2019-06-07T04:03:50.693Z,11.45
2019-06-07T04:06:10.536Z,11.45
2019-06-07T04:08:42.156Z,11.62
2019-06-07T04:11:10.942Z,11.65
2019-06-07T04:13:42.933Z,11.69
2019-06-07T04:16:11.379Z,11.80
2019-06-07T04:18:42.481Z,11.81
2019-06-07T04:21:10.955Z,11.83
2019-06-07T04:23:45.564Z,12.01
2019-06-07T04:26:11.228Z,12.35
2019-06-07T04:29:31.108Z,12.60
2019-06-07T04:31:11.376Z,12.77
2019-06-07T04:33:43.627Z,12.93
2019-06-07T04:36:11.536Z,13.13
2019-06-07T04:41:20.800Z,13.55
2019-06-07T04:46:31.574Z,13.65
2019-06-07T04:51:41.042Z,13.88
2019-06-07T04:54:09.929Z,14.06
2019-06-07T04:56:43.748Z,14.29
2019-06-07T04:59:10.130Z,14.39
2019-06-07T05:01:42.610Z,14.51
2019-06-07T05:04:10.284Z,14.70
2019-06-07T05:06:42.304Z,14.85
2019-06-07T05:11:49.821Z,14.98
2019-06-07T05:16:59.085Z,15.34
2019-06-07T05:19:30.569Z,15.50
2019-06-07T05:22:04.349Z,15.71
2019-06-07T05:24:30.739Z,15.80
2019-06-07T05:26:59.437Z,15.90
2019-06-07T05:32:08.673Z,16.00
2019-06-07T05:34:41.906Z,16.18
2019-06-07T05:37:12.083Z,16.13
2019-06-07T05:39:42.595Z,16.26
2019-06-07T05:42:08.432Z,16.37
2019-06-07T05:44:39.982Z,16.35
2019-06-07T05:47:08.572Z,16.24
2019-06-07T05:49:41.631Z,16.49
2019-06-07T05:52:08.452Z,16.80
2019-06-07T05:54:40.449Z,16.94
2019-06-07T05:57:08.981Z,16.95
2019-06-07T05:59:41.630Z,17.00
2019-06-07T06:02:21.833Z,17.09
2019-06-07T06:04:40.268Z,16.87
2019-06-07T06:07:08.680Z,16.84
2019-06-07T06:09:38.627Z,17.16
2019-06-07T06:12:08.937Z,17.19
2019-06-07T06:14:41.989Z,17.04
2019-06-07T06:17:09.175Z,17.27
2019-06-07T06:19:40.701Z,17.33
2019-06-07T06:22:09.046Z,17.55
2019-06-07T06:24:39.997Z,17.62
2019-06-07T06:27:28.482Z,16.94
2019-06-07T06:29:40.542Z,16.54
2019-06-07T06:32:41.220Z,16.57
2019-06-07T06:34:41.398Z,16.69
2019-06-07T06:37:09.031Z,17.21
2019-06-07T06:39:39.559Z,17.61
2019-06-07T06:42:08.895Z,17.33
2019-06-07T06:44:41.887Z,17.38
2019-06-07T06:47:09.081Z,17.78
2019-06-07T06:49:40.412Z,17.68
2019-06-07T06:52:08.964Z,17.75
2019-06-07T06:54:42.963Z,17.83
2019-06-07T06:57:19.593Z,17.91
2019-06-07T06:59:41.256Z,18.03
2019-06-07T07:02:09.027Z,18.06
2019-06-07T07:04:41.827Z,18.02
2019-06-07T07:07:09.495Z,18.06
2019-06-07T07:09:42.399Z,18.21
2019-06-07T07:12:12.599Z,18.48
2019-06-07T07:14:39.572Z,18.03
2019-06-07T07:17:09.524Z,17.77
2019-06-07T07:22:18.794Z,18.25
2019-06-07T07:24:51.785Z,18.24
2019-06-07T07:27:18.994Z,18.31
2019-06-07T07:29:54.414Z,18.41
2019-06-07T07:32:18.897Z,18.44
2019-06-07T07:34:51.811Z,18.25
2019-06-07T07:37:18.752Z,18.58
2019-06-07T07:39:53.380Z,18.41
2019-06-07T07:42:21.549Z,17.63
2019-06-07T07:44:49.932Z,17.41
2019-06-07T07:47:18.773Z,17.28
2019-06-07T07:49:53.039Z,17.15
2019-06-07T07:52:18.985Z,17.26
2019-06-07T07:54:49.851Z,17.28
2019-06-07T07:57:19.119Z,17.13
2019-06-07T08:00:08.391Z,17.26
2019-06-07T08:02:19.293Z,17.17
2019-06-07T08:07:19.512Z,17.22
2019-06-07T08:09:51.442Z,17.37
2019-06-07T08:12:19.430Z,17.56
2019-06-07T08:14:51.130Z,17.27
2019-06-07T08:17:19.328Z,17.10
2019-06-07T08:19:51.313Z,16.96
2019-06-07T08:22:19.222Z,16.81
2019-06-07T08:24:51.355Z,16.76
2019-06-07T08:27:26.329Z,16.88
2019-06-07T08:30:10.198Z,16.69
2019-06-07T08:35:03.366Z,16.86
2019-06-07T08:38:13.610Z,16.87
2019-06-07T08:40:01.486Z,16.67
2019-06-07T08:42:36.913Z,16.84
2019-06-07T08:45:03.704Z,16.78
2019-06-07T08:47:28.423Z,16.84
2019-06-07T08:50:02.778Z,16.90
2019-06-07T08:52:28.420Z,16.97
2019-06-07T08:55:03.334Z,17.02
2019-06-07T08:57:28.209Z,17.20
2019-06-07T09:00:04.814Z,17.15
2019-06-07T09:02:28.051Z,17.49
2019-06-07T09:05:03.156Z,17.96
2019-06-07T09:07:27.937Z,17.67
2019-06-07T09:10:03.610Z,17.55
2019-06-07T09:12:27.813Z,17.71
2019-06-07T09:15:12.109Z,17.78
2019-06-07T09:17:27.692Z,17.78
2019-06-07T09:22:37.266Z,18.01
2019-06-07T09:25:19.860Z,18.47
2019-06-07T09:27:37.524Z,18.08
2019-06-07T09:30:16.329Z,18.58
2019-06-07T09:32:40.180Z,18.67
2019-06-07T09:35:16.437Z,18.33
2019-06-07T09:38:04.607Z,18.58
2019-06-07T09:40:21.717Z,18.41
2019-06-07T09:42:39.990Z,18.31
2019-06-07T09:45:13.778Z,18.49
2019-06-07T09:47:40.196Z,18.47
2019-06-07T09:55:29.125Z,18.51
2019-06-07T09:58:03.643Z,18.46
2019-06-07T10:00:44.294Z,18.71
2019-06-07T10:03:05.586Z,18.57
2019-06-07T10:05:28.884Z,18.77
2019-06-07T10:08:12.172Z,18.99
2019-06-07T10:10:36.186Z,19.50
2019-06-07T10:12:59.518Z,19.68
2019-06-07T10:15:28.970Z,19.78
2019-06-07T10:17:58.882Z,19.59
2019-06-07T10:20:28.825Z,19.31
2019-06-07T10:25:38.106Z,19.11
2019-06-07T10:28:08.437Z,19.05
2019-06-07T10:30:38.244Z,19.18
2019-06-07T10:33:08.665Z,19.30
2019-06-07T10:35:38.755Z,19.20
2019-06-07T10:38:08.984Z,19.77
2019-06-07T10:40:38.935Z,19.98
2019-06-07T10:43:09.427Z,19.98
2019-06-07T10:48:18.170Z,19.86
2019-06-07T10:50:48.102Z,19.87
2019-06-07T10:53:18.037Z,19.96
2019-06-07T10:55:47.973Z,19.78
2019-06-07T10:58:17.917Z,19.85
2019-06-07T11:00:47.865Z,20.11
2019-06-07T11:03:17.777Z,20.11
2019-06-07T11:05:47.899Z,20.07
2019-06-07T11:08:17.832Z,20.37
2019-06-07T11:10:47.788Z,20.56
2019-06-07T11:13:17.997Z,20.60
2019-06-07T11:15:47.952Z,20.88
2019-06-07T11:18:18.889Z,20.83
2019-06-07T11:20:48.167Z,20.66
2019-06-07T11:23:18.542Z,20.67
2019-06-07T11:25:48.359Z,20.85
2019-06-07T11:28:18.709Z,20.81
2019-06-07T11:30:48.212Z,21.03
2019-06-07T11:33:18.850Z,20.98
2019-06-07T11:35:48.079Z,21.33
2019-06-07T11:38:18.789Z,21.39
2019-06-07T11:40:47.939Z,21.56
2019-06-07T11:43:19.052Z,21.69
2019-06-07T11:45:48.504Z,21.72
2019-06-07T11:48:18.430Z,21.84
2019-06-07T11:50:48.637Z,21.68
2019-06-07T11:53:19.962Z,21.80
2019-06-07T11:55:48.525Z,21.93
2019-06-07T11:58:21.692Z,21.93
2019-06-07T12:00:48.738Z,21.88
2019-06-07T12:03:18.661Z,21.88
2019-06-07T12:05:48.610Z,21.92
2019-06-07T12:08:18.541Z,21.98
2019-06-07T12:10:48.469Z,22.10
2019-06-07T12:13:18.990Z,22.06
2019-06-07T12:15:49.250Z,22.21
2019-06-07T12:18:19.585Z,22.37
2019-06-07T12:20:48.222Z,22.30
2019-06-07T12:23:18.453Z,22.25
2019-06-07T12:25:48.386Z,22.52
2019-06-07T12:28:18.825Z,22.50
2019-06-07T12:30:48.538Z,22.43
2019-06-07T12:33:19.660Z,22.60
2019-06-07T12:35:48.396Z,22.70
2019-06-07T12:38:19.379Z,22.86
2019-06-07T12:40:57.324Z,22.82
2019-06-07T12:43:19.108Z,22.55
2019-06-07T12:45:48.385Z,22.61
2019-06-07T12:48:21.313Z,22.85
2019-06-07T12:50:48.499Z,22.80
2019-06-07T12:53:23.743Z,22.73
2019-06-07T12:55:48.742Z,22.65
2019-06-07T12:58:28.155Z,22.74
2019-06-07T13:00:48.643Z,22.90
2019-06-07T13:03:18.589Z,22.76
2019-06-07T13:05:48.511Z,22.75
2019-06-07T13:08:19.681Z,22.68
2019-06-07T13:10:48.369Z,22.87
2019-06-07T13:13:20.423Z,23.02
2019-06-07T13:15:48.568Z,23.33
2019-06-07T13:18:19.774Z,23.17
2019-06-07T13:20:48.441Z,23.09
2019-06-07T13:23:19.301Z,23.15
2019-06-07T13:25:48.620Z,23.29
2019-06-07T13:28:18.938Z,23.24
2019-06-07T13:30:48.483Z,23.04
2019-06-07T13:33:18.999Z,22.95
2019-06-07T13:35:48.339Z,23.37
2019-06-07T13:38:20.518Z,23.55
2019-06-07T13:40:49.173Z,23.42
2019-06-07T13:43:19.279Z,23.52
2019-06-07T13:48:28.369Z,23.70
2019-06-07T13:50:58.362Z,23.71
2019-06-07T13:53:29.076Z,23.91
2019-06-07T13:55:58.442Z,23.72
2019-06-07T14:01:07.715Z,23.81
2019-06-07T14:06:18.822Z,23.74
2019-06-07T14:08:47.264Z,24.02
2019-06-07T14:11:17.484Z,24.17
2019-06-07T14:16:28.258Z,23.99
2019-06-07T14:18:56.740Z,23.92
2019-06-07T14:21:26.759Z,23.99
2019-06-07T14:26:36.230Z,24.10
2019-06-07T14:29:06.153Z,24.02
2019-06-07T14:31:36.488Z,24.26
2019-06-07T14:34:06.447Z,24.23
2019-06-07T14:36:36.364Z,24.33
2019-06-07T14:39:06.593Z,24.17
2019-06-07T14:41:36.541Z,24.23
2019-06-07T14:44:06.519Z,24.40
2019-06-07T14:46:36.512Z,24.36
2019-06-07T14:49:06.443Z,24.37
2019-06-07T14:51:36.683Z,24.40
2019-06-07T14:56:45.941Z,24.43
2019-06-07T14:59:15.910Z,24.43
2019-06-07T15:01:45.841Z,24.42
2019-06-07T15:04:16.021Z,24.08
2019-06-07T15:06:45.972Z,24.04
2019-06-07T15:09:16.243Z,24.27
2019-06-07T15:11:46.164Z,24.11
2019-06-07T15:14:16.962Z,24.13
2019-06-07T15:19:26.624Z,24.12
2019-06-07T15:21:55.399Z,24.06
2019-06-07T15:27:04.658Z,24.03
2019-06-07T15:29:35.898Z,24.03
2019-06-07T15:32:04.540Z,24.01
2019-06-07T15:37:13.832Z,24.10
2019-06-07T15:39:44.058Z,24.26
2019-06-07T15:42:13.988Z,24.14
2019-06-07T15:47:23.284Z,23.98
2019-06-07T15:49:53.521Z,24.07
2019-06-07T15:52:23.455Z,24.26
2019-06-07T15:54:53.400Z,23.97
2019-06-07T15:57:23.320Z,24.12
2019-06-07T15:59:53.298Z,24.25
2019-06-07T16:02:23.500Z,24.37
2019-06-07T16:04:53.743Z,24.24
2019-06-07T16:07:23.719Z,24.25
2019-06-07T16:09:53.656Z,24.20
2019-06-07T16:12:23.871Z,24.31
2019-06-07T16:14:53.815Z,24.13
2019-06-07T16:17:24.013Z,24.10
2019-06-07T16:22:33.557Z,24.17
2019-06-07T16:27:42.892Z,24.03
2019-06-07T16:30:12.512Z,24.28
2019-06-07T16:32:44.129Z,24.27
2019-06-07T16:35:12.451Z,24.13
2019-06-07T16:37:43.013Z,24.11
2019-06-07T16:40:12.337Z,24.21
2019-06-07T16:42:42.929Z,24.14
2019-06-07T16:47:51.583Z,23.94
2019-06-07T16:50:21.498Z,24.16
2019-06-07T16:52:51.791Z,24.02
2019-06-07T16:55:21.739Z,23.95
2019-06-07T16:57:52.019Z,23.94
2019-06-07T17:00:21.959Z,24.07
2019-06-07T17:02:52.168Z,24.05
2019-06-07T17:05:22.483Z,23.90
2019-06-07T17:07:52.426Z,24.02
2019-06-07T17:10:22.359Z,24.19
2019-06-07T17:12:52.620Z,23.96
2019-06-07T17:15:22.832Z,24.12
2019-06-07T17:17:53.057Z,23.93
2019-06-07T17:20:22.989Z,23.86
2019-06-07T17:22:52.923Z,23.87
2019-06-07T17:25:23.214Z,23.77
2019-06-07T17:27:53.424Z,23.88
2019-06-07T17:30:23.399Z,24.01
2019-06-07T17:32:58.979Z,23.88
2019-06-07T17:35:23.229Z,23.74
2019-06-07T17:37:53.148Z,23.65
2019-06-07T17:40:23.406Z,23.70
2019-06-07T17:42:53.334Z,23.72
2019-06-07T17:45:23.281Z,23.60
2019-06-07T17:47:53.207Z,23.56
2019-06-07T17:50:23.150Z,23.58
2019-06-07T17:52:53.406Z,23.64
2019-06-07T17:55:23.344Z,23.49
2019-06-07T17:57:53.613Z,23.42
2019-06-07T18:00:33.352Z,23.50
2019-06-07T18:02:53.849Z,23.35
2019-06-07T18:05:23.799Z,23.41
2019-06-07T18:07:53.988Z,23.33
2019-06-07T18:10:35.941Z,23.29
2019-06-07T18:13:05.873Z,23.34
2019-06-07T18:15:46.321Z,23.13
2019-06-07T18:18:15.252Z,22.99
2019-06-07T18:20:45.245Z,22.89
2019-06-07T18:23:15.120Z,22.92
2019-06-07T18:25:46.467Z,22.85
2019-06-07T18:28:15.428Z,22.98
2019-06-07T18:30:46.405Z,23.08
2019-06-07T18:33:15.210Z,23.04
2019-06-07T18:35:45.125Z,22.78
2019-06-07T18:38:15.073Z,22.60
2019-06-07T18:40:44.994Z,22.39
2019-06-07T18:43:14.945Z,22.30
2019-06-07T18:45:44.849Z,22.35
2019-06-07T18:48:15.127Z,22.31
2019-06-07T18:50:46.510Z,22.19
2019-06-07T18:53:15.587Z,22.24
2019-06-07T18:55:45.616Z,22.04
2019-06-07T18:58:15.823Z,22.09
2019-06-07T19:00:47.199Z,21.93
2019-06-07T19:03:15.713Z,22.02
2019-06-07T19:05:45.632Z,21.96
2019-06-07T19:08:15.574Z,21.78
2019-06-07T19:10:45.805Z,21.70
2019-06-07T19:13:15.753Z,21.57
2019-06-07T19:15:45.682Z,21.57
2019-06-07T19:18:15.616Z,21.50
2019-06-07T19:20:45.853Z,21.42
2019-06-07T19:23:15.793Z,21.25
2019-06-07T19:25:46.091Z,21.20
2019-06-07T19:28:16.208Z,21.16
2019-06-07T19:30:46.432Z,21.13
2019-06-07T19:33:16.357Z,21.17
2019-06-07T19:35:46.279Z,21.03
2019-06-07T19:40:55.859Z,20.89
2019-06-07T19:43:25.488Z,20.84
2019-06-07T19:45:56.173Z,20.80
2019-06-07T19:48:25.954Z,20.76
2019-06-07T19:50:56.858Z,20.69
2019-06-07T19:53:26.148Z,20.76
2019-06-07T19:55:57.079Z,20.74
2019-06-07T19:58:26.277Z,20.81
2019-06-07T20:00:57.484Z,20.65
2019-06-07T20:03:26.129Z,20.64
2019-06-07T20:05:56.132Z,20.76
2019-06-07T20:08:26.008Z,20.85
2019-06-07T20:10:56.455Z,20.77
2019-06-07T20:13:25.872Z,20.74
2019-06-07T20:15:56.861Z,20.79
2019-06-07T20:18:27.874Z,20.77
2019-06-07T20:20:56.418Z,20.82
2019-06-07T20:23:25.592Z,20.84
2019-06-07T20:25:55.512Z,20.83
2019-06-07T20:28:25.438Z,20.86
2019-06-07T20:33:34.700Z,20.86
2019-06-07T20:36:04.864Z,20.80
2019-06-07T20:38:34.824Z,20.65
2019-06-07T20:41:05.407Z,20.68
2019-06-07T20:46:14.283Z,20.69
2019-06-07T20:48:44.691Z,20.65
2019-06-07T20:51:14.515Z,20.66
2019-06-07T20:56:24.705Z,20.87
2019-06-07T20:58:54.054Z,20.54
2019-06-07T21:01:23.992Z,20.28
2019-06-07T21:06:33.508Z,19.77
2019-06-07T21:09:03.748Z,19.37
2019-06-07T21:11:33.686Z,19.12
2019-06-07T21:14:04.132Z,18.74
2019-06-07T21:16:34.196Z,18.72
2019-06-07T21:21:43.926Z,18.22
2019-06-07T21:26:53.542Z,17.75
2019-06-07T21:29:23.139Z,17.43
2019-06-07T21:31:53.344Z,17.16
2019-06-07T21:34:23.551Z,16.85
2019-06-07T21:36:53.482Z,16.90
2019-06-07T21:42:04.103Z,16.60
2019-06-07T21:44:33.038Z,16.51
2019-06-07T21:47:04.114Z,16.21
2019-06-07T21:49:32.928Z,16.47
2019-06-07T21:52:04.283Z,16.29
2019-06-07T21:54:32.865Z,16.22
2019-06-07T21:57:02.894Z,16.36
2019-06-07T21:59:32.716Z,16.62
2019-06-07T22:02:03.267Z,16.07
2019-06-07T22:04:32.862Z,16.04
2019-06-07T22:07:03.334Z,16.11
2019-06-07T22:09:32.743Z,15.80
2019-06-07T22:12:04.365Z,15.59
2019-06-07T22:14:32.619Z,15.80
2019-06-07T22:17:02.562Z,15.83
2019-06-07T22:19:32.522Z,15.88
2019-06-07T22:22:03.327Z,15.69
2019-06-07T22:24:32.408Z,15.57
2019-06-07T22:27:02.359Z,15.80
2019-06-07T22:29:32.617Z,15.70
2019-06-07T22:32:02.818Z,15.65
2019-06-07T22:34:32.774Z,15.56
2019-06-07T22:37:03.062Z,15.44
2019-06-07T22:42:13.491Z,15.30
2019-06-07T22:44:42.545Z,15.59
2019-06-07T22:47:12.485Z,15.51
2019-06-07T22:49:42.427Z,15.29
2019-06-07T22:52:15.233Z,15.20
2019-06-07T22:54:42.641Z,15.20
2019-06-07T22:57:12.535Z,15.44
2019-06-07T22:59:42.474Z,15.55
2019-06-07T23:02:12.702Z,15.55
2019-06-07T23:04:42.344Z,15.12
2019-06-07T23:07:12.970Z,14.92
2019-06-07T23:09:42.208Z,14.98
2019-06-07T23:12:13.169Z,15.09
2019-06-07T23:14:42.060Z,14.75
2019-06-07T23:17:12.002Z,14.44
2019-06-07T23:19:41.937Z,14.63
2019-06-07T23:22:11.933Z,14.93
2019-06-07T23:24:42.057Z,15.24
2019-06-07T23:27:12.693Z,15.35
2019-06-07T23:29:42.211Z,14.94
2019-06-07T23:32:12.677Z,14.98
2019-06-07T23:34:42.085Z,15.11
2019-06-07T23:37:13.038Z,14.96
2019-06-07T23:39:42.278Z,14.82
2019-06-07T23:42:13.154Z,14.78
2019-06-07T23:44:42.185Z,14.85
2019-06-07T23:47:15.430Z,14.53
2019-06-07T23:49:42.017Z,14.72
2019-06-07T23:52:12.023Z,14.83
2019-06-07T23:54:41.892Z,15.05
2019-06-07T23:57:12.149Z,15.06
2019-06-07T23:59:41.768Z,15.09
